Time;durP1;ratioP1;P1;durP2;ratioP2;P2;SDS_P1;SDS_P2;PMS_P1;PMS_P2;Temp;Humidity;BMP_temperature;BMP_pressure;BME280_temperature;BME280_humidity;BME280_pressure;Samples;Min_cycle;Max_cycle;Signal;HPM_P1;HPM_P2
2021/05/11 00:05:52;;;;;;;11.20;3.37;;;;;;;;;;12927841;22;20205;-78
2021/05/11 00:10:55;;;;;;;10.13;2.63;;;;;;;;;;12951340;22;20171;-78
2021/05/11 00:15:59;;;;;;;9.87;2.70;;;;;;;;;;12949002;22;20228;-78
2021/05/11 00:21:01;;;;;;;7.90;2.30;;;;;;;;;;12951367;22;20174;-78
2021/05/11 00:26:04;;;;;;;10.90;2.80;;;;;;;;;;12974757;22;20639;-77
2021/05/11 00:31:06;;;;;;;10.87;2.73;;;;;;;;;;12944177;22;20519;-77
2021/05/11 00:36:08;;;;;;;7.47;2.30;;;;;;;;;;12948345;22;20519;-77
2021/05/11 00:41:12;;;;;;;12.60;2.67;;;;;;;;;;12949386;22;20174;-78
2021/05/11 00:46:15;;;;;;;11.97;2.70;;;;;;;;;;12967352;22;20536;-78
2021/05/11 00:51:20;;;;;;;6.77;2.43;;;;;;;;;;12951720;22;20166;-78
2021/05/11 00:56:25;;;;;;;10.63;3.03;;;;;;;;;;12950244;22;20212;-78
2021/05/11 01:01:27;;;;;;;7.27;2.50;;;;;;;;;;12969398;22;20612;-78
2021/05/11 01:06:29;;;;;;;10.40;2.73;;;;;;;;;;12946334;22;20249;-78
2021/05/11 01:11:32;;;;;;;8.77;2.57;;;;;;;;;;12969711;22;20594;-78
2021/05/11 01:16:34;;;;;;;9.87;2.57;;;;;;;;;;12947263;22;20588;-78
2021/05/11 01:21:42;;;;;;;11.80;2.60;;;;;;;;;;12949502;22;20166;-76
2021/05/11 01:26:49;;;;;;;10.13;2.47;;;;;;;;;;12969328;22;20366;-76
2021/05/11 01:32:23;;;;;;;6.33;2.47;;;;;;;;;;12948116;22;20535;-77
2021/05/11 01:48:14;;;;;;;10.90;2.50;;;;;;;;;;12945579;22;20204;-77
2021/05/11 02:25:25;;;;;;;9.07;2.53;;;;;;;;;;12952137;22;20212;-78
2021/05/11 02:30:28;;;;;;;8.00;2.37;;;;;;;;;;12944601;22;20205;-78
2021/05/11 02:35:29;;;;;;;7.03;2.47;;;;;;;;;;12948823;22;20210;-76
2021/05/11 02:40:31;;;;;;;8.63;2.73;;;;;;;;;;12947048;22;20673;-76
2021/05/11 02:45:35;;;;;;;7.93;2.20;;;;;;;;;;12946294;22;20258;-77
2021/05/11 02:50:37;;;;;;;7.50;2.50;;;;;;;;;;12949542;22;20270;-77
2021/05/11 02:55:39;;;;;;;7.50;2.50;;;;;;;;;;12947239;22;20710;-77
2021/05/11 03:00:43;;;;;;;7.97;2.37;;;;;;;;;;12946847;22;20174;-77
2021/05/11 03:05:45;;;;;;;7.60;2.40;;;;;;;;;;12950032;22;20277;-77
2021/05/11 03:10:46;;;;;;;11.40;2.70;;;;;;;;;;12951374;22;20175;-78
2021/05/11 03:15:49;;;;;;;8.87;2.47;;;;;;;;;;12950032;22;20208;-78
2021/05/11 03:20:51;;;;;;;11.23;2.33;;;;;;;;;;12951350;22;20174;-77
2021/05/11 03:25:53;;;;;;;7.13;2.47;;;;;;;;;;12975887;22;20185;-78
2021/05/11 03:30:56;;;;;;;8.00;2.53;;;;;;;;;;12947950;22;20175;-77
2021/05/11 03:35:58;;;;;;;6.60;2.17;;;;;;;;;;12953580;22;20213;-77
2021/05/11 03:41:00;;;;;;;12.17;2.87;;;;;;;;;;12950242;22;20516;-77
2021/05/11 03:46:07;;;;;;;8.67;2.40;;;;;;;;;;12950319;22;20197;-77
2021/05/11 03:51:09;;;;;;;6.63;2.33;;;;;;;;;;12953607;22;20338;-78
2021/05/11 03:56:11;;;;;;;11.73;2.70;;;;;;;;;;12972687;22;20216;-77
2021/05/11 04:01:15;;;;;;;9.27;2.67;;;;;;;;;;12950514;22;20617;-78
2021/05/11 04:06:17;;;;;;;9.10;2.63;;;;;;;;;;12970751;22;20178;-78
2021/05/11 04:16:38;;;;;;;8.57;2.50;;;;;;;;;;12929825;22;20711;-76
2021/05/11 04:21:41;;;;;;;8.37;2.60;;;;;;;;;;12973946;22;20182;-77
2021/05/11 04:26:43;;;;;;;9.87;3.00;;;;;;;;;;12949957;22;20202;-77
2021/05/11 04:31:47;;;;;;;5.67;2.20;;;;;;;;;;12969556;22;20174;-77
2021/05/11 04:36:49;;;;;;;8.83;2.83;;;;;;;;;;12951108;22;20210;-78
2021/05/11 04:41:53;;;;;;;10.47;2.80;;;;;;;;;;12970426;22;20194;-77
2021/05/11 04:47:01;;;;;;;7.17;2.70;;;;;;;;;;12945428;22;20576;-77
2021/05/11 04:52:04;;;;;;;9.17;3.13;;;;;;;;;;12949983;22;20167;-77
2021/05/11 04:57:09;;;;;;;10.03;3.10;;;;;;;;;;12950907;22;20205;-77
2021/05/11 05:02:12;;;;;;;12.27;2.73;;;;;;;;;;12946092;22;20272;-77
2021/05/11 05:07:15;;;;;;;6.33;2.47;;;;;;;;;;12951087;22;20519;-77
2021/05/11 05:12:17;;;;;;;6.70;2.70;;;;;;;;;;12950590;22;20177;-77
2021/05/11 05:17:24;;;;;;;10.37;3.30;;;;;;;;;;12947531;22;20484;-77
2021/05/11 05:22:27;;;;;;;8.40;2.87;;;;;;;;;;12970091;22;20179;-76
2021/05/11 05:27:38;;;;;;;9.10;2.80;;;;;;;;;;12951196;22;20975;-77
2021/05/11 05:32:42;;;;;;;17.60;3.60;;;;;;;;;;12947510;22;20631;-77
2021/05/11 05:37:44;;;;;;;12.47;3.57;;;;;;;;;;12950937;22;20205;-78
2021/05/11 05:42:47;;;;;;;11.23;3.27;;;;;;;;;;12947856;22;20175;-78
2021/05/11 05:47:53;;;;;;;9.67;2.80;;;;;;;;;;12947901;22;20636;-78
2021/05/11 05:53:01;;;;;;;8.50;2.73;;;;;;;;;;12972023;22;20515;-77
2021/05/11 05:58:03;;;;;;;12.60;3.23;;;;;;;;;;12950022;22;20178;-77
2021/05/11 06:03:16;;;;;;;11.93;3.00;;;;;;;;;;12946044;22;20224;-77
2021/05/11 06:08:19;;;;;;;10.27;3.00;;;;;;;;;;12948420;22;20517;-77
2021/05/11 06:13:25;;;;;;;10.77;3.23;;;;;;;;;;12948799;22;20210;-77
2021/05/11 06:18:28;;;;;;;10.93;2.90;;;;;;;;;;12941504;22;20173;-77
2021/05/11 06:23:30;;;;;;;8.77;2.97;;;;;;;;;;12948952;22;21157;-76
2021/05/11 06:28:37;;;;;;;10.17;3.27;;;;;;;;;;12947554;22;20181;-77
2021/05/11 06:33:41;;;;;;;10.07;3.30;;;;;;;;;;12947512;22;20580;-76
2021/05/11 06:38:43;;;;;;;11.60;3.20;;;;;;;;;;12948099;22;20206;-78
2021/05/11 06:43:46;;;;;;;14.37;3.57;;;;;;;;;;12974429;22;20176;-78
2021/05/11 06:49:02;;;;;;;7.77;3.13;;;;;;;;;;12948984;22;20250;-77
2021/05/11 06:54:05;;;;;;;10.80;3.70;;;;;;;;;;12953211;22;20277;-77
2021/05/11 06:59:07;;;;;;;9.77;3.60;;;;;;;;;;12948715;22;20170;-77
2021/05/11 07:04:10;;;;;;;8.47;3.60;;;;;;;;;;12948181;22;20585;-77
2021/05/11 07:09:16;;;;;;;13.83;4.17;;;;;;;;;;12952542;22;20190;-77
2021/05/11 07:14:19;;;;;;;10.33;3.90;;;;;;;;;;12950556;22;20200;-77
2021/05/11 07:19:23;;;;;;;11.90;3.80;;;;;;;;;;12950170;22;20236;-78
2021/05/11 07:24:27;;;;;;;10.03;4.00;;;;;;;;;;12953838;22;20635;-78
2021/05/11 07:29:43;;;;;;;13.50;4.10;;;;;;;;;;12953293;22;20181;-77
2021/05/11 07:34:47;;;;;;;10.47;3.70;;;;;;;;;;12950891;22;21053;-77
2021/05/11 07:39:49;;;;;;;12.70;4.17;;;;;;;;;;12953493;22;20660;-76
2021/05/11 07:44:55;;;;;;;13.60;4.23;;;;;;;;;;12949289;22;20175;-77
2021/05/11 08:16:46;;;;;;;10.17;3.80;;;;;;;;;;12970914;22;20194;-77
2021/05/11 08:22:15;;;;;;;14.53;4.60;;;;;;;;;;12951847;22;20547;-78
2021/05/11 08:27:35;;;;;;;16.60;4.43;;;;;;;;;;12951494;22;20177;-77
2021/05/11 08:32:38;;;;;;;12.73;4.00;;;;;;;;;;12946951;22;20166;-77
2021/05/11 08:37:41;;;;;;;11.13;4.33;;;;;;;;;;12954603;22;20271;-77
2021/05/11 08:42:44;;;;;;;10.87;3.87;;;;;;;;;;12951654;22;20662;-77
2021/05/11 08:47:49;;;;;;;10.37;4.37;;;;;;;;;;12949052;22;20253;-77
2021/05/11 08:53:17;;;;;;;13.03;4.47;;;;;;;;;;12954218;22;20183;-77
2021/05/11 09:09:39;;;;;;;8.70;3.53;;;;;;;;;;12952260;22;20167;-77
2021/05/11 09:25:34;;;;;;;12.97;4.33;;;;;;;;;;12949431;22;20463;-76
2021/05/11 09:30:51;;;;;;;8.77;4.43;;;;;;;;;;12968697;22;20604;-77
2021/05/11 09:52:27;;;;;;;10.73;4.30;;;;;;;;;;12949792;22;20166;-77
2021/05/11 09:57:41;;;;;;;11.63;4.47;;;;;;;;;;12946518;22;20194;-77
2021/05/11 10:41:27;;;;;;;8.93;4.20;;;;;;;;;;12959848;22;20221;-77
2021/05/11 10:46:52;;;;;;;9.70;5.10;;;;;;;;;;12969215;22;20170;-77
2021/05/11 10:52:06;;;;;;;12.00;5.77;;;;;;;;;;12970723;22;20182;-77
2021/05/11 10:57:28;;;;;;;14.87;5.97;;;;;;;;;;12949056;22;20541;-77
2021/05/11 11:07:49;;;;;;;14.20;6.00;;;;;;;;;;12950723;22;20170;-78
2021/05/11 11:12:52;;;;;;;11.27;5.30;;;;;;;;;;12947533;22;20178;-77
2021/05/11 11:17:55;;;;;;;17.47;5.47;;;;;;;;;;12948321;22;20474;-77
2021/05/11 11:28:27;;;;;;;11.63;5.40;;;;;;;;;;12951040;22;20443;-77
2021/05/11 11:33:30;;;;;;;13.23;5.13;;;;;;;;;;12949227;22;20242;-77
2021/05/11 11:38:32;;;;;;;12.63;4.73;;;;;;;;;;12951534;22;20229;-77
2021/05/11 11:43:34;;;;;;;7.57;4.50;;;;;;;;;;12948297;22;20341;-77
2021/05/11 11:48:38;;;;;;;13.37;5.07;;;;;;;;;;12948809;22;20694;-77
2021/05/11 11:53:45;;;;;;;7.13;3.37;;;;;;;;;;12951324;22;20656;-77
2021/05/11 11:58:49;;;;;;;10.03;3.77;;;;;;;;;;12950525;22;20217;-77
2021/05/11 12:03:55;;;;;;;8.70;3.67;;;;;;;;;;12948957;22;20202;-77
2021/05/11 12:08:58;;;;;;;10.03;3.60;;;;;;;;;;12972282;22;20175;-77
2021/05/11 12:14:00;;;;;;;8.20;2.90;;;;;;;;;;12948918;22;20192;-76
2021/05/11 12:19:06;;;;;;;7.10;2.90;;;;;;;;;;12971433;22;20185;-76
2021/05/11 12:24:09;;;;;;;7.00;2.80;;;;;;;;;;12972731;22;20205;-77
2021/05/11 12:29:12;;;;;;;9.33;3.00;;;;;;;;;;12950661;22;20182;-77
2021/05/11 12:34:17;;;;;;;7.67;3.30;;;;;;;;;;12969140;22;20715;-77
2021/05/11 12:39:33;;;;;;;11.87;3.80;;;;;;;;;;12974989;22;20178;-77
2021/05/11 12:44:35;;;;;;;13.00;4.00;;;;;;;;;;12970478;22;20166;-77
2021/05/11 12:49:39;;;;;;;15.33;4.43;;;;;;;;;;12971777;22;20494;-76
2021/05/11 12:54:47;;;;;;;10.83;3.77;;;;;;;;;;12950304;22;20222;-76
2021/05/11 12:59:53;;;;;;;11.70;4.27;;;;;;;;;;12971489;22;20931;-76
2021/05/11 13:05:08;;;;;;;12.10;4.40;;;;;;;;;;12954496;22;20202;-77
2021/05/11 13:15:57;;;;;;;12.00;5.03;;;;;;;;;;12969297;22;20281;-77
2021/05/11 13:21:17;;;;;;;14.47;5.67;;;;;;;;;;12973391;22;20257;-77
2021/05/11 13:26:23;;;;;;;10.60;5.73;;;;;;;;;;12970413;22;20500;-77
2021/05/11 13:31:30;;;;;;;10.07;4.70;;;;;;;;;;12969618;22;20620;-76
2021/05/11 13:36:34;;;;;;;7.67;3.40;;;;;;;;;;12971927;22;20228;-77
2021/05/11 13:41:37;;;;;;;7.47;3.43;;;;;;;;;;12973279;22;20170;-76
2021/05/11 13:46:40;;;;;;;6.97;3.17;;;;;;;;;;12968575;22;20250;-77
2021/05/11 13:51:43;;;;;;;5.80;2.70;;;;;;;;;;12971720;22;20181;-78
2021/05/11 14:07:32;;;;;;;10.87;3.93;;;;;;;;;;12895719;22;20178;-77
2021/05/11 14:12:35;;;;;;;11.67;3.80;;;;;;;;;;12972241;22;20174;-77
2021/05/11 14:17:37;;;;;;;10.17;3.10;;;;;;;;;;12945789;22;20640;-77
2021/05/11 14:22:41;;;;;;;8.80;3.10;;;;;;;;;;12951960;22;20174;-77
2021/05/11 14:27:45;;;;;;;10.93;3.60;;;;;;;;;;12970378;22;20237;-77
2021/05/11 14:32:48;;;;;;;11.03;3.90;;;;;;;;;;12947030;22;20609;-76
2021/05/11 14:37:52;;;;;;;9.77;2.87;;;;;;;;;;12974085;22;20190;-78
2021/05/11 14:42:57;;;;;;;6.93;2.70;;;;;;;;;;12954950;22;20178;-76
2021/05/11 14:48:00;;;;;;;4.63;2.13;;;;;;;;;;12967450;22;20171;-78
2021/05/11 14:53:03;;;;;;;12.50;3.30;;;;;;;;;;12952369;22;20232;-78
2021/05/11 14:58:06;;;;;;;12.50;4.23;;;;;;;;;;12949481;22;20202;-76
2021/05/11 15:03:11;;;;;;;12.73;4.90;;;;;;;;;;12973453;22;20202;-77
2021/05/11 15:08:14;;;;;;;15.10;5.47;;;;;;;;;;12974931;22;20209;-77
2021/05/11 15:13:18;;;;;;;14.00;5.80;;;;;;;;;;12955648;22;20178;-77
2021/05/11 15:18:20;;;;;;;11.80;5.47;;;;;;;;;;12950327;22;20256;-77
2021/05/11 15:23:24;;;;;;;19.00;6.70;;;;;;;;;;12954839;22;20218;-77
2021/05/11 15:28:26;;;;;;;11.50;6.13;;;;;;;;;;12974601;22;20178;-77
2021/05/11 15:33:29;;;;;;;18.33;6.07;;;;;;;;;;12950899;22;20579;-78
2021/05/11 15:38:32;;;;;;;10.77;5.23;;;;;;;;;;12973898;22;20205;-77
2021/05/11 15:43:35;;;;;;;9.50;4.73;;;;;;;;;;12951709;22;20265;-77
2021/05/11 15:48:38;;;;;;;9.07;4.20;;;;;;;;;;12970737;22;20226;-77
2021/05/11 15:53:41;;;;;;;10.43;3.90;;;;;;;;;;12951830;22;20181;-78
2021/05/11 15:58:44;;;;;;;9.73;3.47;;;;;;;;;;12952596;22;20212;-77
2021/05/11 16:03:46;;;;;;;7.17;3.47;;;;;;;;;;12969689;22;20922;-78
2021/05/11 16:08:50;;;;;;;9.47;3.70;;;;;;;;;;12973991;22;20174;-77
2021/05/11 16:13:53;;;;;;;7.87;3.57;;;;;;;;;;12970237;22;20182;-77
2021/05/11 16:18:55;;;;;;;7.67;3.63;;;;;;;;;;12969173;22;20198;-76
2021/05/11 16:23:58;;;;;;;6.53;3.17;;;;;;;;;;12950709;22;20625;-77
2021/05/11 16:29:03;;;;;;;6.57;3.30;;;;;;;;;;12971674;22;20205;-77
2021/05/11 16:34:07;;;;;;;10.20;3.37;;;;;;;;;;12948483;22;20186;-77
2021/05/11 16:39:11;;;;;;;7.63;3.13;;;;;;;;;;12975330;22;20212;-76
2021/05/11 16:44:13;;;;;;;8.43;2.93;;;;;;;;;;12949238;22;20496;-78
2021/05/11 16:49:15;;;;;;;7.17;3.03;;;;;;;;;;12947921;22;20262;-77
2021/05/11 16:54:18;;;;;;;8.53;3.00;;;;;;;;;;12948166;22;20524;-77
2021/05/11 16:59:21;;;;;;;7.80;2.40;;;;;;;;;;12972122;22;20206;-77
2021/05/11 17:04:23;;;;;;;5.60;2.40;;;;;;;;;;12969112;22;20206;-77
2021/05/11 17:09:29;;;;;;;5.23;2.10;;;;;;;;;;12952893;22;20174;-76
2021/05/11 17:14:31;;;;;;;4.33;2.10;;;;;;;;;;12947787;22;20171;-77
2021/05/11 17:19:34;;;;;;;3.47;2.10;;;;;;;;;;12951475;22;20206;-76
2021/05/11 17:24:37;;;;;;;4.90;2.10;;;;;;;;;;12949597;22;20185;-77
2021/05/11 17:29:40;;;;;;;4.67;2.50;;;;;;;;;;12971105;22;20253;-77
2021/05/11 17:34:44;;;;;;;7.00;3.10;;;;;;;;;;12970096;22;20183;-77
2021/05/11 17:39:47;;;;;;;7.33;3.40;;;;;;;;;;12971439;22;20198;-77
2021/05/11 17:44:49;;;;;;;7.40;3.20;;;;;;;;;;12967609;22;20582;-77
2021/05/11 17:49:52;;;;;;;8.80;3.30;;;;;;;;;;12972379;22;20192;-77
2021/05/11 17:54:56;;;;;;;8.97;3.50;;;;;;;;;;12969755;22;20506;-78
2021/05/11 17:59:59;;;;;;;5.60;3.00;;;;;;;;;;12970222;22;20198;-78
2021/05/11 18:05:01;;;;;;;6.77;3.60;;;;;;;;;;12948210;22;20278;-78
2021/05/11 18:10:05;;;;;;;7.83;3.50;;;;;;;;;;12950543;22;20185;-77
2021/05/11 18:15:08;;;;;;;6.43;3.43;;;;;;;;;;12946893;22;20175;-77
2021/05/11 18:20:11;;;;;;;7.03;3.77;;;;;;;;;;12971937;22;20241;-78
2021/05/11 18:25:16;;;;;;;10.40;3.90;;;;;;;;;;12949771;22;20636;-78
2021/05/11 18:30:20;;;;;;;6.67;3.60;;;;;;;;;;12947422;22;20212;-78
2021/05/11 18:35:25;;;;;;;8.40;4.10;;;;;;;;;;12951288;22;20174;-78
2021/05/11 18:40:29;;;;;;;8.63;3.80;;;;;;;;;;12976310;22;20650;-78
2021/05/11 18:45:32;;;;;;;9.07;3.60;;;;;;;;;;12971854;22;20174;-77
2021/05/11 18:50:36;;;;;;;7.13;3.67;;;;;;;;;;12974667;22;20171;-77
2021/05/11 18:55:41;;;;;;;7.90;4.20;;;;;;;;;;12969500;22;20194;-77
2021/05/11 19:00:43;;;;;;;9.43;3.53;;;;;;;;;;12970570;22;20643;-77
2021/05/11 19:05:47;;;;;;;7.40;3.80;;;;;;;;;;12949816;22;20202;-78
2021/05/11 19:10:50;;;;;;;6.73;3.80;;;;;;;;;;12973773;22;20178;-78
2021/05/11 19:15:53;;;;;;;8.47;4.20;;;;;;;;;;12947622;22;20212;-78
2021/05/11 19:20:55;;;;;;;8.67;4.40;;;;;;;;;;12951878;22;20724;-79
2021/05/11 19:25:58;;;;;;;8.13;4.40;;;;;;;;;;12971159;22;20174;-78
2021/05/11 19:31:01;;;;;;;9.40;4.30;;;;;;;;;;12972163;22;20181;-78
2021/05/11 19:36:05;;;;;;;9.57;4.40;;;;;;;;;;12950317;22;20687;-78
2021/05/11 19:41:09;;;;;;;9.70;5.00;;;;;;;;;;12950281;22;20489;-80
2021/05/11 19:46:11;;;;;;;9.83;4.93;;;;;;;;;;12943593;22;20183;-79
2021/05/11 19:51:14;;;;;;;9.63;4.53;;;;;;;;;;12970472;22;20181;-77
2021/05/11 19:56:17;;;;;;;7.83;4.13;;;;;;;;;;12949826;22;20544;-77
2021/05/11 20:01:20;;;;;;;10.60;4.20;;;;;;;;;;12950707;22;20179;-77
2021/05/11 20:06:22;;;;;;;11.40;4.13;;;;;;;;;;12948147;22;20182;-78
2021/05/11 20:11:26;;;;;;;11.33;5.30;;;;;;;;;;12949907;22;20193;-78
2021/05/11 20:16:29;;;;;;;7.40;4.37;;;;;;;;;;12945292;22;20538;-78
2021/05/11 20:21:32;;;;;;;9.67;4.30;;;;;;;;;;12952855;22;20217;-78
2021/05/11 20:26:35;;;;;;;7.77;4.43;;;;;;;;;;12971077;22;20186;-78
2021/05/11 20:31:37;;;;;;;11.53;5.03;;;;;;;;;;12970509;22;20172;-78
2021/05/11 20:36:40;;;;;;;12.73;4.70;;;;;;;;;;12971094;22;20213;-78
2021/05/11 20:41:44;;;;;;;9.60;4.93;;;;;;;;;;12958407;22;20182;-77
2021/05/11 20:46:47;;;;;;;9.17;4.80;;;;;;;;;;12949499;22;20513;-78
2021/05/11 20:51:50;;;;;;;8.77;4.57;;;;;;;;;;12951473;22;20175;-78
2021/05/11 20:56:53;;;;;;;9.53;4.90;;;;;;;;;;12970259;22;20644;-77
